LiveATC.Net - Listen to live air traffic control over the Internet!


ICAO: LGIR  IATA: HER   Airport: Heraklion International Airport
City: Iraklion
Country: Greece   Continent: Europe
LGIR METAR Weather: LGIR 220920Z 34016KT 9999 FEW020 SCT025 13/05 Q1030 NOSIG
LGIR Flight Activity (FlightAware)

LGIR Approach
Feed Status: DOWN
Last heard on: 2020-01-21 07:05:06 (1 days 2 hours 38 minutes ago)
Archive Access: LGIR Approach
FacilityFrequency
Iraklion Radar123.975

LGIR Ground
Feed Status: DOWN
Last heard on: 2020-01-21 07:05:06 (1 days 2 hours 38 minutes ago)
Archive Access: LGIR Ground
FacilityFrequency
Heraklion Ground121.700

LGIR Tower
Feed Status: DOWN
Last heard on: 2020-01-21 07:05:06 (1 days 2 hours 38 minutes ago)
Archive Access: LGIR Tower
FacilityFrequency
Heraklion Tower120.850

NOTICE

Unauthorized use prohibited. See LiveATC.net Terms of Service


Airport/ARTCC Code
Frequency Search
(e.g., 124.400, 128.75)
Site-wide search
 


Browse Feeds
Top 50 Feeds
Coverage Map
Bad Weather Areas

LiveATC FAQ
Offer LiveATC feed
Contact LiveATC.net
Press Inquiries

LiveATC on iPhone
LiveATC on Android

Windows Phone
Windows 8/10

LiveATC Mobile
(Mobile browser)

ATC Audio Archives
Interesting Recordings

LiveATC Forums


Home Page
About LiveATC.net
Make a Donation
Terms of Use
Privacy Policy

Canadian Air Freqs

AIRMETs/SIGMETs

FAA Airport Status
Nat'l Airspace Status
Arrival Demand Charts


Server Software By:
Icecast.org
Liquidsoap